createdAt,value
2019-05-14T00:01:07.345Z,98209.99
2019-05-14T00:04:04.272Z,98208.10
2019-05-14T00:07:01.119Z,98198.12
2019-05-14T00:09:57.384Z,98207.16
2019-05-14T00:12:53.879Z,98198.06
2019-05-14T00:15:52.162Z,98204.57
2019-05-14T00:18:47.766Z,98197.41
2019-05-14T00:21:44.352Z,98202.83
2019-05-14T00:24:41.634Z,98198.47
2019-05-14T00:27:36.559Z,98201.77
2019-05-14T00:30:34.338Z,98195.47
2019-05-14T00:33:31.652Z,98186.19
2019-05-14T00:36:26.918Z,98184.12
2019-05-14T00:39:32.065Z,98182.41
2019-05-14T00:42:26.643Z,98175.98
2019-05-14T00:45:23.499Z,98175.05
2019-05-14T00:48:22.177Z,98174.44
2019-05-14T00:51:16.998Z,98169.39
2019-05-14T00:54:14.981Z,98175.57
2019-05-14T00:57:11.940Z,98182.52
2019-05-14T01:00:17.482Z,98174.73
2019-05-14T01:03:13.263Z,98174.48
2019-05-14T01:06:14.068Z,98172.42
2019-05-14T01:09:11.886Z,98165.61
2019-05-14T01:12:07.713Z,98163.02
2019-05-14T01:15:09.787Z,98153.94
2019-05-14T01:18:02.213Z,98158.69
2019-05-14T01:21:01.114Z,98153.36
2019-05-14T01:23:54.705Z,98158.91
2019-05-14T01:26:54.874Z,98162.55
2019-05-14T01:29:52.841Z,98157.06
2019-05-14T01:32:51.208Z,98148.70
2019-05-14T01:35:46.107Z,98151.86
2019-05-14T01:38:46.902Z,98151.73
2019-05-14T01:41:51.711Z,98138.20
2019-05-14T01:44:46.149Z,98138.12
2019-05-14T01:47:41.799Z,98137.06
2019-05-14T01:50:41.425Z,98134.31
2019-05-14T01:53:35.799Z,98131.66
2019-05-14T01:56:33.905Z,98133.94
2019-05-14T01:59:32.175Z,98136.36
2019-05-14T02:02:31.888Z,98127.73
2019-05-14T02:05:30.936Z,98130.11
2019-05-14T02:08:24.994Z,98131.69
2019-05-14T02:11:22.796Z,98122.90
2019-05-14T02:14:18.315Z,98122.48
2019-05-14T02:17:16.017Z,98122.64
2019-05-14T02:20:12.594Z,98121.69
2019-05-14T02:23:08.396Z,98114.50
2019-05-14T02:26:05.032Z,98113.48
2019-05-14T02:29:01.944Z,98115.90
2019-05-14T02:31:59.001Z,98114.12
2019-05-14T02:34:53.522Z,98111.53
2019-05-14T02:37:51.729Z,98107.91
2019-05-14T02:40:49.798Z,98111.22
2019-05-14T02:43:45.150Z,98098.27
2019-05-14T02:46:41.827Z,98098.27
2019-05-14T02:49:39.700Z,98103.71
2019-05-14T02:52:34.212Z,98096.00
2019-05-14T02:55:30.120Z,98097.25
2019-05-14T02:58:29.538Z,98098.83
2019-05-14T03:01:30.183Z,98093.27
2019-05-14T03:04:24.994Z,98096.80
2019-05-14T03:07:21.842Z,98087.41
2019-05-14T03:10:19.446Z,98091.48
2019-05-14T03:13:23.910Z,98086.28
2019-05-14T03:16:30.387Z,98089.91
2019-05-14T03:19:19.654Z,98086.00
2019-05-14T03:22:15.320Z,98086.77
2019-05-14T03:25:11.232Z,98084.05
2019-05-14T03:28:09.252Z,98080.66
2019-05-14T03:31:05.018Z,98077.20
2019-05-14T03:34:03.539Z,98075.17
2019-05-14T03:37:03.468Z,98079.57
2019-05-14T03:39:54.003Z,98079.25
2019-05-14T03:42:51.686Z,98076.27
2019-05-14T03:45:49.563Z,98074.23
2019-05-14T03:48:44.930Z,98073.95
2019-05-14T03:51:41.561Z,98073.15
2019-05-14T03:54:45.548Z,98074.97
2019-05-14T03:57:42.843Z,98077.77
2019-05-14T04:00:50.488Z,98073.77
2019-05-14T04:03:46.431Z,98067.34
2019-05-14T04:06:43.578Z,98070.31
2019-05-14T04:09:41.417Z,98064.97
2019-05-14T04:12:40.380Z,98063.23
2019-05-14T04:15:39.036Z,98064.97
2019-05-14T04:18:32.385Z,98061.66
2019-05-14T04:21:33.146Z,98061.84
2019-05-14T04:24:29.646Z,98061.98
2019-05-14T04:27:24.650Z,98066.38
2019-05-14T04:30:24.387Z,98049.87
2019-05-14T04:33:19.095Z,98057.55
2019-05-14T04:36:25.005Z,98059.12
2019-05-14T04:39:23.112Z,98059.44
2019-05-14T04:42:20.526Z,98062.33
2019-05-14T04:45:21.933Z,98059.88
2019-05-14T04:48:28.950Z,98058.37
2019-05-14T04:51:10.693Z,98057.50
2019-05-14T04:54:09.426Z,98054.94
2019-05-14T04:57:09.753Z,98058.58
2019-05-14T05:00:13.436Z,98061.86
2019-05-14T05:03:13.164Z,98058.84
2019-05-14T05:06:09.921Z,98064.77
2019-05-14T05:09:04.757Z,98063.81
2019-05-14T05:12:02.033Z,98062.04
2019-05-14T05:15:00.975Z,98057.76
2019-05-14T05:17:58.947Z,98059.77
2019-05-14T05:20:55.278Z,98053.77
2019-05-14T05:23:58.532Z,98055.94
2019-05-14T05:27:01.341Z,98051.80
2019-05-14T05:29:59.030Z,98065.45
2019-05-14T05:32:54.962Z,98064.28
2019-05-14T05:35:51.558Z,98056.78
2019-05-14T05:38:49.226Z,98057.34
2019-05-14T05:41:44.226Z,98050.52
2019-05-14T05:44:41.097Z,98053.27
2019-05-14T05:47:39.080Z,98047.70
2019-05-14T05:50:33.830Z,98040.41
2019-05-14T05:53:32.903Z,98034.37
2019-05-14T05:56:29.678Z,98026.05
2019-05-14T05:59:29.002Z,98027.36
2019-05-14T06:02:25.132Z,98022.70
2019-05-14T06:05:24.492Z,98023.73
2019-05-14T06:08:19.545Z,98019.84
2019-05-14T06:11:23.875Z,98025.31
2019-05-14T06:14:32.949Z,98034.37
2019-05-14T06:17:29.116Z,98036.70
2019-05-14T06:20:28.158Z,98038.20
2019-05-14T06:23:24.037Z,98027.57
2019-05-14T06:26:19.797Z,98029.95
2019-05-14T06:29:18.512Z,98022.58
2019-05-14T06:32:12.218Z,98022.81
2019-05-14T06:35:15.364Z,98026.13
2019-05-14T06:38:10.569Z,98019.36
2019-05-14T06:41:08.389Z,98023.03
2019-05-14T06:44:05.214Z,98021.31
2019-05-14T06:47:04.037Z,98021.51
2019-05-14T06:50:01.186Z,98021.39
2019-05-14T06:52:58.105Z,98016.84
2019-05-14T06:55:54.178Z,98013.45
2019-05-14T06:58:50.164Z,98008.83
2019-05-14T07:01:48.958Z,98009.17
2019-05-14T07:04:43.828Z,98012.27
2019-05-14T07:07:52.614Z,98007.25
2019-05-14T07:10:49.336Z,98005.52
2019-05-14T07:13:46.060Z,98006.38
2019-05-14T07:16:48.517Z,97996.63
2019-05-14T07:19:45.028Z,98002.19
2019-05-14T07:22:41.566Z,98000.56
2019-05-14T07:25:40.942Z,98006.42
2019-05-14T07:28:42.124Z,98005.71
2019-05-14T07:31:34.450Z,98010.23
2019-05-14T07:34:30.892Z,98013.09
2019-05-14T07:37:28.534Z,98024.29
2019-05-14T07:40:24.320Z,98013.41
2019-05-14T07:43:20.031Z,98015.06
2019-05-14T07:46:18.849Z,98026.55
2019-05-14T07:49:13.544Z,98023.73
2019-05-14T07:52:10.296Z,98023.54
2019-05-14T07:55:09.260Z,98018.86
2019-05-14T07:58:04.605Z,98023.19
2019-05-14T08:00:59.375Z,98012.06
2019-05-14T08:03:59.944Z,98011.77
2019-05-14T08:06:52.964Z,98003.89
2019-05-14T08:09:49.713Z,98005.51
2019-05-14T08:12:52.138Z,98009.43
2019-05-14T08:15:50.110Z,98008.16
2019-05-14T08:18:48.468Z,98003.09
2019-05-14T08:21:42.839Z,98000.07
2019-05-14T08:24:39.518Z,97999.92
2019-05-14T08:27:38.857Z,98000.65
2019-05-14T08:30:33.681Z,98005.09
2019-05-14T08:33:35.426Z,97992.50
2019-05-14T08:36:31.144Z,97989.45
2019-05-14T08:39:28.699Z,97985.05
2019-05-14T08:42:24.242Z,97984.99
2019-05-14T08:45:21.069Z,97977.64
2019-05-14T08:48:19.168Z,97977.41
2019-05-14T08:51:18.480Z,97977.80
2019-05-14T08:54:12.341Z,97969.14
2019-05-14T08:57:09.816Z,97965.63
2019-05-14T09:00:13.474Z,97963.23
2019-05-14T09:03:03.133Z,97962.09
2019-05-14T09:06:00.838Z,97950.84
2019-05-14T09:08:59.522Z,97958.80
2019-05-14T09:11:53.647Z,97950.80
2019-05-14T09:14:49.260Z,97945.50
2019-05-14T09:17:48.532Z,97941.51
2019-05-14T09:20:43.331Z,97946.90
2019-05-14T09:23:40.028Z,97938.95
2019-05-14T09:26:38.917Z,97935.47
2019-05-14T09:29:33.679Z,97925.73
2019-05-14T09:32:29.407Z,97923.52
2019-05-14T09:35:29.201Z,97927.75
2019-05-14T09:38:24.662Z,97924.48
2019-05-14T09:41:21.294Z,97926.16
2019-05-14T09:44:18.744Z,97931.84
2019-05-14T09:47:20.626Z,97926.05
2019-05-14T09:50:19.170Z,97922.58
2019-05-14T09:53:10.964Z,97926.08
2019-05-14T09:56:12.704Z,97919.11
2019-05-14T09:59:09.348Z,97911.82
2019-05-14T10:02:05.826Z,97909.39
2019-05-14T10:05:01.467Z,97907.58
2019-05-14T10:07:59.473Z,97905.56
2019-05-14T10:10:54.872Z,97904.73
2019-05-14T10:13:52.443Z,97895.22
2019-05-14T10:16:50.218Z,97892.61
2019-05-14T10:19:49.732Z,97888.30
2019-05-14T10:22:44.982Z,97896.50
2019-05-14T10:25:42.731Z,97881.81
2019-05-14T10:28:43.456Z,97885.91
2019-05-14T10:31:39.771Z,97890.69
2019-05-14T10:34:34.255Z,97893.48
2019-05-14T10:37:33.691Z,97891.64
2019-05-14T10:40:31.569Z,97881.92
2019-05-14T10:43:28.804Z,97883.11
2019-05-14T10:46:29.199Z,97865.14
2019-05-14T10:49:29.713Z,97855.56
2019-05-14T10:52:25.008Z,97853.15
2019-05-14T10:55:22.602Z,97849.27
2019-05-14T10:58:20.868Z,97843.48
2019-05-14T11:01:22.293Z,97831.48
2019-05-14T11:04:15.346Z,97835.09
2019-05-14T11:07:12.709Z,97829.52
2019-05-14T11:10:11.204Z,97821.68
2019-05-14T11:13:09.193Z,97830.08
2019-05-14T11:16:08.403Z,97818.94
2019-05-14T11:19:02.886Z,97816.40
2019-05-14T11:22:00.324Z,97811.61
2019-05-14T11:24:59.169Z,97810.14
2019-05-14T11:27:58.771Z,97796.67
2019-05-14T11:30:55.687Z,97792.09
2019-05-14T11:33:52.204Z,97795.58
2019-05-14T11:36:50.023Z,97795.98
2019-05-14T11:39:49.894Z,97798.08
2019-05-14T11:42:49.487Z,97784.61
2019-05-14T11:45:44.167Z,97785.06
2019-05-14T11:48:44.716Z,97777.61
2019-05-14T11:51:59.602Z,97783.02
2019-05-14T11:54:43.376Z,97774.70
2019-05-14T11:57:43.024Z,97775.74
2019-05-14T12:00:39.653Z,97765.52
2019-05-14T12:03:39.466Z,97756.77
2019-05-14T12:06:39.061Z,97750.70
2019-05-14T12:09:39.054Z,97751.67
2019-05-14T12:12:41.220Z,97740.81
2019-05-14T12:15:43.332Z,97741.14
2019-05-14T12:18:42.050Z,97734.12
2019-05-14T12:21:39.925Z,97728.56
2019-05-14T12:24:38.752Z,97727.69
2019-05-14T12:27:33.537Z,97735.23
2019-05-14T12:30:31.291Z,97720.52
2019-05-14T12:33:34.903Z,97716.59
2019-05-14T12:36:29.262Z,97719.08
2019-05-14T12:39:24.911Z,97713.57
2019-05-14T12:42:21.343Z,97715.51
2019-05-14T12:45:21.083Z,97712.47
2019-05-14T12:48:22.759Z,97721.52
2019-05-14T12:51:23.070Z,97724.86
2019-05-14T12:54:20.077Z,97719.44
2019-05-14T12:57:18.938Z,97710.14
2019-05-14T13:00:15.415Z,97710.14
2019-05-14T13:03:20.758Z,97720.73
2019-05-14T13:06:19.235Z,97715.16
2019-05-14T13:09:19.126Z,97706.47
2019-05-14T13:12:14.155Z,97700.80
2019-05-14T13:15:15.536Z,97693.53
2019-05-14T13:18:15.399Z,97682.64
2019-05-14T13:21:11.927Z,97680.89
2019-05-14T13:24:09.466Z,97674.97
2019-05-14T13:27:11.404Z,97662.44
2019-05-14T13:30:13.541Z,97654.03
2019-05-14T13:33:11.042Z,97650.77
2019-05-14T13:36:07.555Z,97651.73
2019-05-14T13:39:09.225Z,97643.65
2019-05-14T13:42:11.914Z,97646.61
2019-05-14T13:45:03.579Z,97641.42
2019-05-14T13:48:04.625Z,97636.39
2019-05-14T13:51:04.279Z,97639.84
2019-05-14T13:54:02.078Z,97628.88
2019-05-14T13:56:58.624Z,97633.17
2019-05-14T13:59:59.024Z,97627.22
2019-05-14T14:02:59.008Z,97647.57
2019-05-14T14:05:54.343Z,97651.77
2019-05-14T14:08:52.089Z,97660.42
2019-05-14T14:11:48.379Z,97651.13
2019-05-14T14:14:49.083Z,97653.78
2019-05-14T14:17:44.798Z,97653.63
2019-05-14T14:20:48.850Z,97649.42
2019-05-14T14:23:43.680Z,97641.10
2019-05-14T14:26:41.356Z,97632.30
2019-05-14T14:29:39.548Z,97619.45
2019-05-14T14:32:35.194Z,97636.52
2019-05-14T14:35:32.751Z,97625.27
2019-05-14T14:38:35.039Z,97644.02
2019-05-14T14:41:33.820Z,97637.97
2019-05-14T14:44:30.720Z,97634.20
2019-05-14T14:47:29.306Z,97635.06
2019-05-14T14:50:28.966Z,97624.38
2019-05-14T14:53:41.306Z,97624.48
2019-05-14T14:56:22.165Z,97621.02
2019-05-14T14:59:19.293Z,97626.77
2019-05-14T15:02:19.862Z,97625.92
2019-05-14T15:05:15.661Z,97629.66
2019-05-14T15:08:12.540Z,97658.85
2019-05-14T15:11:09.183Z,97653.59
2019-05-14T15:14:08.436Z,97663.39
2019-05-14T15:17:05.190Z,97652.61
2019-05-14T15:20:02.740Z,97678.84
2019-05-14T15:23:01.813Z,97699.58
2019-05-14T15:26:02.023Z,97698.70
2019-05-14T15:29:00.535Z,97680.16
2019-05-14T15:31:59.166Z,97662.49
2019-05-14T15:34:55.345Z,97656.13
2019-05-14T15:38:00.430Z,97645.52
2019-05-14T15:40:59.558Z,97649.05
2019-05-14T15:43:54.282Z,97647.25
2019-05-14T15:46:50.398Z,97652.79
2019-05-14T15:49:48.862Z,97641.73
2019-05-14T15:52:48.693Z,97641.73
2019-05-14T15:55:49.052Z,97628.95
2019-05-14T15:58:45.457Z,97621.75
2019-05-14T16:01:46.656Z,97623.48
2019-05-14T16:04:45.215Z,97620.15
2019-05-14T16:07:43.002Z,97623.86
2019-05-14T16:10:40.852Z,97610.06
2019-05-14T16:13:39.810Z,97614.84
2019-05-14T16:16:36.217Z,97614.14
2019-05-14T16:19:34.125Z,97609.59
2019-05-14T16:22:33.690Z,97605.89
2019-05-14T16:25:31.309Z,97607.85
2019-05-14T16:28:30.955Z,97609.97
2019-05-14T16:31:31.793Z,97610.77
2019-05-14T16:34:28.826Z,97615.50
2019-05-14T16:37:28.068Z,97608.63
2019-05-14T16:40:22.089Z,97606.05
2019-05-14T16:43:19.426Z,97597.45
2019-05-14T16:46:20.816Z,97597.38
2019-05-14T16:49:18.518Z,97598.94
2019-05-14T16:52:14.708Z,97591.94
2019-05-14T16:55:23.122Z,97591.83
2019-05-14T16:58:09.521Z,97592.13
2019-05-14T17:01:05.007Z,97587.38
2019-05-14T17:04:03.538Z,97595.28
2019-05-14T17:07:00.404Z,97590.47
2019-05-14T17:09:58.136Z,97592.18
2019-05-14T17:12:57.435Z,97592.18
2019-05-14T17:15:51.045Z,97590.20
2019-05-14T17:18:48.794Z,97585.37
2019-05-14T17:21:48.692Z,97589.45
2019-05-14T17:24:43.861Z,97594.77
2019-05-14T17:27:41.280Z,97588.44
2019-05-14T17:30:38.730Z,97590.56
2019-05-14T17:33:39.194Z,97595.72
2019-05-14T17:36:32.683Z,97596.56
2019-05-14T17:39:31.021Z,97596.56
2019-05-14T17:42:29.397Z,97602.33
2019-05-14T17:45:28.419Z,97601.02
2019-05-14T17:48:24.245Z,97595.75
2019-05-14T17:51:20.755Z,97608.23
2019-05-14T17:54:18.687Z,97639.14
2019-05-14T17:57:14.767Z,97639.14
2019-05-14T18:00:12.009Z,97637.66
2019-05-14T18:03:08.963Z,97641.76
2019-05-14T18:06:08.992Z,97649.43
2019-05-14T18:09:03.806Z,97645.16
2019-05-14T18:12:01.949Z,97639.86
2019-05-14T18:14:58.920Z,97640.02
2019-05-14T18:17:58.657Z,97636.00
2019-05-14T18:20:52.299Z,97647.50
2019-05-14T18:23:49.304Z,97635.14
2019-05-14T18:26:44.156Z,97633.98
2019-05-14T18:29:42.461Z,97636.05
2019-05-14T18:32:39.186Z,97644.39
2019-05-14T18:35:45.073Z,97644.39
2019-05-14T18:38:33.818Z,97643.77
2019-05-14T18:41:31.442Z,97644.95
2019-05-14T18:44:28.501Z,97647.84
2019-05-14T18:47:29.094Z,97651.56
2019-05-14T18:50:23.706Z,97655.36
2019-05-14T18:53:20.380Z,97654.84
2019-05-14T18:56:23.866Z,97656.79
2019-05-14T18:59:14.665Z,97657.89
2019-05-14T19:02:12.132Z,97648.42
2019-05-14T19:05:11.721Z,97656.25
2019-05-14T19:08:08.094Z,97653.13
2019-05-14T19:11:05.487Z,97661.37
2019-05-14T19:14:00.598Z,97666.67
2019-05-14T19:17:03.350Z,97659.20
2019-05-14T19:19:55.257Z,97659.08
2019-05-14T19:22:52.433Z,97662.87
2019-05-14T19:25:49.614Z,97659.78
2019-05-14T19:28:48.481Z,97655.91
2019-05-14T19:31:47.944Z,97653.22
2019-05-14T19:34:43.739Z,97651.48
2019-05-14T19:37:39.515Z,97647.85
2019-05-14T19:40:38.969Z,97649.86
2019-05-14T19:43:31.402Z,97656.53
2019-05-14T19:46:29.170Z,97657.15
2019-05-14T19:49:33.532Z,97658.33
2019-05-14T19:52:29.265Z,97649.53
2019-05-14T19:55:28.578Z,97657.86
2019-05-14T19:58:21.645Z,97658.12
2019-05-14T20:01:21.754Z,97655.95
2019-05-14T20:04:32.189Z,97656.64
2019-05-14T20:07:28.054Z,97656.55
2019-05-14T20:10:24.623Z,97653.86
2019-05-14T20:13:30.736Z,97656.16
2019-05-14T20:16:28.675Z,97646.67
2019-05-14T20:19:24.383Z,97650.81
2019-05-14T20:22:22.253Z,97654.86
2019-05-14T20:25:18.922Z,97658.90
2019-05-14T20:28:15.905Z,97653.63
2019-05-14T20:31:12.832Z,97653.94
2019-05-14T20:34:08.839Z,97656.75
2019-05-14T20:37:08.295Z,97656.71
2019-05-14T20:40:02.480Z,97655.94
2019-05-14T20:43:01.446Z,97652.75
2019-05-14T20:45:59.466Z,97648.30
2019-05-14T20:48:54.759Z,97645.69
2019-05-14T20:51:50.557Z,97647.30
2019-05-14T20:54:47.751Z,97644.38
2019-05-14T20:57:43.153Z,97636.23
2019-05-14T21:00:48.306Z,97634.84
2019-05-14T21:03:44.048Z,97633.92
2019-05-14T21:06:39.664Z,97632.18
2019-05-14T21:09:35.293Z,97634.84
2019-05-14T21:12:32.111Z,97628.97
2019-05-14T21:15:28.990Z,97632.06
2019-05-14T21:18:34.721Z,97634.88
2019-05-14T21:21:23.830Z,97633.19
2019-05-14T21:24:21.928Z,97631.72
2019-05-14T21:27:21.229Z,97631.81
2019-05-14T21:30:13.991Z,97626.77
2019-05-14T21:33:11.811Z,97628.02
2019-05-14T21:36:12.284Z,97630.55
2019-05-14T21:39:07.946Z,97619.30
2019-05-14T21:42:01.600Z,97621.81
2019-05-14T21:44:58.553Z,97621.72
2019-05-14T21:47:55.414Z,97621.72
2019-05-14T21:50:52.225Z,97614.11
2019-05-14T21:53:48.421Z,97615.77
2019-05-14T21:56:45.972Z,97619.02
2019-05-14T21:59:42.841Z,97617.84
2019-05-14T22:02:38.745Z,97606.36
2019-05-14T22:05:35.242Z,97613.54
2019-05-14T22:08:30.858Z,97612.67
2019-05-14T22:11:28.229Z,97605.45
2019-05-14T22:14:24.101Z,97609.80
2019-05-14T22:17:20.796Z,97600.53
2019-05-14T22:20:28.863Z,97598.11
2019-05-14T22:23:23.438Z,97610.63
2019-05-14T22:26:31.355Z,97602.14
2019-05-14T22:29:28.619Z,97600.06
2019-05-14T22:32:24.509Z,97603.05
2019-05-14T22:35:21.087Z,97611.41
2019-05-14T22:38:19.984Z,97603.31
2019-05-14T22:41:13.275Z,97600.66
2019-05-14T22:44:09.715Z,97598.56
2019-05-14T22:47:08.116Z,97595.17
2019-05-14T22:50:01.955Z,97591.39
2019-05-14T22:52:58.755Z,97583.35
2019-05-14T22:55:53.972Z,97584.27
2019-05-14T22:58:50.647Z,97577.77
2019-05-14T23:01:48.065Z,97577.30
2019-05-14T23:04:42.845Z,97579.91
2019-05-14T23:07:40.042Z,97580.83
2019-05-14T23:10:35.527Z,97572.83
2019-05-14T23:13:32.153Z,97571.56
2019-05-14T23:16:34.182Z,97569.05
2019-05-14T23:19:32.450Z,97569.05
2019-05-14T23:22:29.720Z,97566.30
2019-05-14T23:25:24.886Z,97565.77
2019-05-14T23:28:37.937Z,97567.91
2019-05-14T23:31:21.376Z,97570.37
2019-05-14T23:34:19.044Z,97570.73
2019-05-14T23:37:18.170Z,97573.67
2019-05-14T23:40:10.944Z,97572.11
2019-05-14T23:43:07.488Z,97570.55
2019-05-14T23:46:03.368Z,97560.66
2019-05-14T23:49:00.876Z,97561.13
2019-05-14T23:51:57.442Z,97551.48
2019-05-14T23:54:53.279Z,97555.61
2019-05-14T23:57:51.287Z,97547.30
